createdAt,value
2023-04-01T00:01:44.411Z,83.26
2023-04-01T00:04:13.117Z,82.50
2023-04-01T00:06:42.229Z,82.86
2023-04-01T00:17:11.347Z,83.92
2023-04-01T00:19:39.006Z,84.64
2023-04-01T00:22:06.785Z,85.93
2023-04-01T00:24:34.325Z,85.88
2023-04-01T00:27:01.995Z,84.30
2023-04-01T00:29:31.184Z,83.67
2023-04-01T00:31:58.895Z,84.07
2023-04-01T00:34:27.027Z,84.67
2023-04-01T00:36:54.794Z,86.07
2023-04-01T00:39:22.453Z,85.52
2023-04-01T00:41:50.419Z,84.33
2023-04-01T00:44:27.006Z,83.92
2023-04-01T00:46:57.229Z,84.10
2023-04-01T00:49:27.444Z,85.10
2023-04-01T00:51:56.123Z,86.20
2023-04-01T00:54:24.093Z,84.61
2023-04-01T00:56:57.065Z,84.08
2023-04-01T00:59:31.767Z,84.38
2023-04-01T01:01:58.990Z,85.80
2023-04-01T01:04:27.845Z,86.63
2023-04-01T01:07:26.526Z,85.59
2023-04-01T01:10:03.508Z,84.02
2023-04-01T01:12:59.535Z,83.88
2023-04-01T01:15:47.182Z,85.30
2023-04-01T01:18:33.562Z,86.30
2023-04-01T01:21:21.408Z,84.67
2023-04-01T01:24:07.719Z,83.71
2023-04-01T01:26:45.093Z,84.27
2023-04-01T01:29:37.326Z,85.61
2023-04-01T01:32:26.097Z,85.48
2023-04-01T01:35:31.866Z,84.44
2023-04-01T01:38:02.723Z,85.46
2023-04-01T01:40:30.434Z,86.22
2023-04-01T01:43:01.081Z,86.29
2023-04-01T01:45:28.318Z,85.46
2023-04-01T01:47:55.913Z,84.07
2023-04-01T01:50:23.745Z,84.18
2023-04-01T01:52:51.424Z,84.86
2023-04-01T01:55:28.290Z,86.52
2023-04-01T01:57:58.817Z,87.16
2023-04-01T02:00:26.986Z,85.66
2023-04-01T02:02:55.179Z,84.96
2023-04-01T02:05:24.458Z,85.25
2023-04-01T02:08:15.848Z,86.51
2023-04-01T02:10:47.328Z,86.86
2023-04-01T02:13:22.767Z,85.86
2023-04-01T02:15:50.556Z,86.00
2023-04-01T02:18:18.408Z,87.00
2023-04-01T02:20:50.054Z,87.47
2023-04-01T02:23:18.226Z,86.10
2023-04-01T02:25:45.706Z,85.41
2023-04-01T02:28:14.984Z,85.63
2023-04-01T02:30:43.062Z,86.31
2023-04-01T02:33:15.122Z,86.44
2023-04-01T02:35:43.310Z,85.30
2023-04-01T02:38:10.906Z,84.88
2023-04-01T02:40:50.289Z,85.19
2023-04-01T02:43:20.526Z,85.93
2023-04-01T02:45:52.380Z,86.57
2023-04-01T02:48:20.138Z,85.26
2023-04-01T02:50:47.492Z,84.70
2023-04-01T02:53:16.290Z,85.46
2023-04-01T02:55:45.598Z,86.76
2023-04-01T02:58:19.614Z,87.06
2023-04-01T03:00:47.285Z,86.00
2023-04-01T03:03:15.701Z,85.47
2023-04-01T03:05:43.908Z,85.65
2023-04-01T03:08:12.390Z,86.09
2023-04-01T03:40:05.541Z,91.97
2023-04-01T03:42:34.977Z,91.63
2023-04-01T03:45:05.264Z,89.23
2023-04-01T03:47:32.583Z,87.70
2023-04-01T03:50:00.498Z,87.46
2023-04-01T03:52:28.359Z,87.55
2023-04-01T03:54:55.604Z,87.97
2023-04-01T03:57:25.834Z,86.80
2023-04-01T03:59:53.997Z,85.45
2023-04-01T04:02:21.501Z,85.17
2023-04-01T04:04:49.046Z,85.69
2023-04-01T04:07:16.569Z,86.34
2023-04-01T04:10:00.425Z,85.73
2023-04-01T04:12:27.664Z,84.67
2023-04-01T04:14:55.738Z,84.34
2023-04-01T04:17:23.398Z,85.15
2023-04-01T04:19:51.878Z,86.06
2023-04-01T04:22:19.848Z,85.86
2023-04-01T04:24:47.405Z,84.38
2023-04-01T04:27:15.482Z,84.04
2023-04-01T04:29:49.389Z,84.13
2023-04-01T04:32:17.660Z,84.90
2023-04-01T04:34:45.330Z,85.44
2023-04-01T04:37:12.366Z,84.21
2023-04-01T04:39:40.465Z,83.44
2023-04-01T04:42:07.907Z,83.57
2023-04-01T04:44:36.324Z,84.34
2023-04-01T04:47:03.761Z,85.17
2023-04-01T04:49:33.354Z,84.99
2023-04-01T04:52:03.149Z,83.77
2023-04-01T04:54:30.605Z,83.16
2023-04-01T04:57:01.376Z,83.50
2023-04-01T04:59:32.222Z,84.37
2023-04-01T05:02:07.037Z,84.64
2023-04-01T05:04:36.717Z,83.19
2023-04-01T05:07:04.523Z,82.47
2023-04-01T05:09:32.758Z,82.42
2023-04-01T05:12:03.186Z,82.95
2023-04-01T05:14:40.072Z,83.63
2023-04-01T05:17:12.741Z,83.27
2023-04-01T05:19:40.605Z,81.12
2023-04-01T05:22:08.166Z,81.23
2023-04-01T05:24:54.256Z,81.31
2023-04-01T05:35:05.814Z,81.44
2023-04-01T05:37:37.449Z,80.84
2023-04-01T05:40:09.007Z,81.28
2023-04-01T05:42:38.457Z,82.04
2023-04-01T05:45:08.637Z,82.82
2023-04-01T05:48:04.337Z,83.13
2023-04-01T05:50:38.150Z,81.59
2023-04-01T05:53:07.246Z,80.84
2023-04-01T05:55:37.479Z,81.03
2023-04-01T05:58:06.361Z,82.00
2023-04-01T06:00:35.559Z,82.58
2023-04-01T06:03:24.099Z,81.55
2023-04-01T06:05:52.796Z,80.78
2023-04-01T06:08:26.819Z,81.26
2023-04-01T06:11:01.426Z,81.99
2023-04-01T06:14:08.412Z,82.57
2023-04-01T06:17:04.239Z,82.82
2023-04-01T06:19:57.710Z,81.69
2023-04-01T06:22:49.227Z,81.76
2023-04-01T06:25:37.265Z,82.76
2023-04-01T06:28:28.370Z,83.07
2023-04-01T06:31:27.694Z,81.90
2023-04-01T06:34:00.561Z,81.71
2023-04-01T06:36:41.501Z,82.01
2023-04-01T06:39:24.562Z,82.62
2023-04-01T06:41:56.228Z,81.51
2023-04-01T06:44:49.854Z,80.84
2023-04-01T06:47:50.746Z,81.55
2023-04-01T06:50:55.048Z,82.23
2023-04-01T06:54:01.723Z,82.66
2023-04-01T06:56:51.270Z,80.67
2023-04-01T06:59:29.960Z,80.43
2023-04-01T07:02:08.964Z,80.83
2023-04-01T07:04:40.909Z,81.48
2023-04-01T07:07:36.624Z,81.69
2023-04-01T07:10:13.916Z,80.04
2023-04-01T07:13:03.769Z,79.74
2023-04-01T07:16:04.835Z,80.52
2023-04-01T07:18:42.629Z,81.58
2023-04-01T07:21:33.753Z,82.20
2023-04-01T07:24:10.457Z,80.67
2023-04-01T07:26:45.626Z,80.37
2023-04-01T07:29:17.253Z,80.85
2023-04-01T07:32:15.487Z,81.91
2023-04-01T07:34:52.056Z,83.18
2023-04-01T07:37:32.110Z,82.44
2023-04-01T07:40:19.639Z,81.28
2023-04-01T07:43:06.572Z,80.96
2023-04-01T07:45:57.381Z,81.60
2023-04-01T07:48:32.988Z,82.73
2023-04-01T07:51:09.992Z,81.96
2023-04-01T07:53:50.759Z,81.31
2023-04-01T07:56:32.879Z,81.74
2023-04-01T07:59:23.666Z,82.67
2023-04-01T08:02:19.846Z,83.69
2023-04-01T08:04:58.178Z,82.29
2023-04-01T08:07:42.376Z,81.52
2023-04-01T08:10:52.830Z,82.09
2023-04-01T08:14:02.163Z,83.10
2023-04-01T08:17:02.682Z,82.41
2023-04-01T08:19:53.255Z,81.91
2023-04-01T08:22:30.623Z,82.38
2023-04-01T08:25:03.955Z,83.53
2023-04-01T08:27:37.790Z,83.95
2023-04-01T08:30:35.330Z,82.72
2023-04-01T08:33:29.106Z,82.33
2023-04-01T08:36:12.617Z,82.51
2023-04-01T08:38:45.448Z,82.97
2023-04-01T08:41:36.851Z,83.81
2023-04-01T08:45:01.847Z,82.00
2023-04-01T08:47:51.333Z,81.65
2023-04-01T08:50:35.262Z,82.56
2023-04-01T08:54:05.699Z,83.72
2023-04-01T08:56:43.122Z,82.98
2023-04-01T08:59:32.673Z,82.58
2023-04-01T09:02:27.581Z,82.67
2023-04-01T09:05:27.897Z,83.80
2023-04-01T09:08:21.578Z,83.99
2023-04-01T09:11:01.830Z,82.70
2023-04-01T09:14:39.625Z,82.54
2023-04-01T09:17:27.265Z,83.55
2023-04-01T09:20:45.608Z,84.29
2023-04-01T09:23:36.308Z,82.99
2023-04-01T09:26:07.868Z,82.59
2023-04-01T09:28:42.589Z,83.59
2023-04-01T09:31:17.364Z,84.80
2023-04-01T09:34:09.051Z,84.27
2023-04-01T09:37:18.789Z,83.11
2023-04-01T09:39:54.779Z,83.53
2023-04-01T09:42:41.136Z,84.13
2023-04-01T09:45:22.828Z,84.52
2023-04-01T09:48:22.955Z,83.04
2023-04-01T09:50:54.841Z,82.92
2023-04-01T09:53:35.501Z,83.82
2023-04-01T09:56:28.742Z,84.41
2023-04-01T09:59:24.580Z,82.87
2023-04-01T10:02:30.067Z,83.11
2023-04-01T10:05:36.791Z,84.02
2023-04-01T10:08:11.817Z,84.95
2023-04-01T10:11:14.534Z,83.69
2023-04-01T10:14:19.345Z,83.91
2023-04-01T10:17:19.963Z,84.42
2023-04-01T10:20:11.808Z,84.45
2023-04-01T10:23:01.953Z,83.66
2023-04-01T10:25:53.094Z,83.52
2023-04-01T10:28:37.248Z,83.88
2023-04-01T10:31:42.435Z,83.92
2023-04-01T10:34:48.403Z,82.52
2023-04-01T10:38:02.263Z,83.02
2023-04-01T10:40:45.001Z,83.68
2023-04-01T10:44:23.741Z,82.26
2023-04-01T10:46:58.579Z,83.17
2023-04-01T10:49:55.095Z,83.35
2023-04-01T10:52:49.131Z,83.96
2023-04-01T10:55:55.346Z,83.07
2023-04-01T10:59:39.603Z,83.17
2023-04-01T11:03:21.520Z,83.61
2023-04-01T11:06:40.474Z,84.47
2023-04-01T11:09:28.817Z,82.85
2023-04-01T11:12:00.289Z,82.67
2023-04-01T11:14:37.142Z,83.03
2023-04-01T11:17:37.389Z,83.40
2023-04-01T11:20:44.284Z,82.18
2023-04-01T11:23:19.309Z,82.70
2023-04-01T11:25:54.007Z,83.20
2023-04-01T11:29:01.216Z,82.91
2023-04-01T11:31:38.626Z,82.05
2023-04-01T11:34:29.089Z,82.00
2023-04-01T11:37:11.076Z,83.33
2023-04-01T11:40:07.935Z,84.43
2023-04-01T11:43:38.481Z,82.88
2023-04-01T11:46:43.116Z,83.12
2023-04-01T11:49:22.016Z,83.82
2023-04-01T11:52:21.219Z,84.14
2023-04-01T11:55:19.712Z,83.43
2023-04-01T11:57:58.015Z,82.96
2023-04-01T12:00:49.854Z,83.68
2023-04-01T12:03:28.149Z,84.71
2023-04-01T12:06:28.088Z,83.82
2023-04-01T12:09:16.217Z,83.88
2023-04-01T12:12:10.638Z,84.39
2023-04-01T12:15:01.913Z,85.60
2023-04-01T12:18:00.489Z,84.08
2023-04-01T12:20:51.770Z,83.81
2023-04-01T12:23:29.662Z,84.50
2023-04-01T12:26:11.516Z,85.36
2023-04-01T12:28:59.568Z,84.34
2023-04-01T12:31:39.737Z,83.88
2023-04-01T12:34:45.606Z,84.04
2023-04-01T12:37:20.004Z,85.34
2023-04-01T12:40:16.422Z,84.35
2023-04-01T12:42:47.872Z,83.32
2023-04-01T12:45:42.074Z,83.73
2023-04-01T12:48:23.036Z,84.40
2023-04-01T12:51:16.708Z,84.40
2023-04-01T12:54:13.951Z,83.09
2023-04-01T12:57:20.556Z,82.65
2023-04-01T13:00:27.857Z,83.98
2023-04-01T13:03:39.050Z,84.10
2023-04-01T13:06:26.557Z,82.72
2023-04-01T13:09:27.694Z,82.73
2023-04-01T13:12:17.712Z,83.00
2023-04-01T13:14:58.471Z,83.47
2023-04-01T13:17:45.569Z,81.49
2023-04-01T13:20:22.938Z,81.12
2023-04-01T13:23:20.813Z,80.76
2023-04-01T13:26:13.769Z,81.72
2023-04-01T13:28:55.532Z,81.16
2023-04-01T13:31:29.338Z,80.04
2023-04-01T13:34:14.736Z,80.31
2023-04-01T13:37:10.566Z,80.85
2023-04-01T13:39:49.895Z,81.80
2023-04-01T13:42:30.259Z,80.32
2023-04-01T13:45:04.681Z,78.73
2023-04-01T13:48:11.049Z,79.46
2023-04-01T13:51:28.983Z,80.29
2023-04-01T13:54:16.516Z,80.86
2023-04-01T13:57:11.335Z,79.85
2023-04-01T13:59:49.722Z,79.17
2023-04-01T14:02:30.518Z,79.72
2023-04-01T14:05:42.210Z,80.28
2023-04-01T14:08:19.191Z,79.99
2023-04-01T14:11:16.637Z,79.45
2023-04-01T14:14:10.815Z,79.31
2023-04-01T14:17:20.906Z,79.89
2023-04-01T14:20:17.416Z,80.76
2023-04-01T14:23:19.679Z,79.47
2023-04-01T14:26:02.603Z,79.20
2023-04-01T14:28:46.032Z,79.74
2023-04-01T14:31:39.533Z,80.71
2023-04-01T14:34:16.293Z,81.74
2023-04-01T14:36:53.358Z,80.21
2023-04-01T14:39:21.734Z,80.32
2023-04-01T14:42:03.908Z,81.04
2023-04-01T14:44:50.849Z,81.79
2023-04-01T14:48:01.728Z,81.89
2023-04-01T14:50:32.148Z,79.89
2023-04-01T14:53:23.675Z,80.08
2023-04-01T14:55:54.096Z,80.39
2023-04-01T14:58:26.375Z,81.17
2023-04-01T15:01:11.257Z,81.18
2023-04-01T15:03:56.917Z,79.46
2023-04-01T15:07:04.042Z,79.63
2023-04-01T15:09:48.095Z,79.90
2023-04-01T15:12:45.925Z,80.54
2023-04-01T15:15:39.439Z,81.01
2023-04-01T15:18:29.983Z,79.22
2023-04-01T15:21:20.718Z,78.16
2023-04-01T15:24:19.383Z,78.08
2023-04-01T15:27:13.789Z,79.02
2023-04-01T15:29:54.440Z,79.64
2023-04-01T15:32:26.160Z,80.21
2023-04-01T15:35:00.174Z,79.14
2023-04-01T15:37:46.602Z,78.56
2023-04-01T15:40:27.175Z,78.80
2023-04-01T15:43:01.804Z,79.23
2023-04-01T15:45:36.551Z,80.19
2023-04-01T15:48:30.168Z,80.31
2023-04-01T15:51:10.560Z,78.70
2023-04-01T15:53:49.079Z,78.06
2023-04-01T15:56:42.418Z,78.26
2023-04-01T15:59:30.479Z,78.78
2023-04-01T16:02:42.237Z,79.59
2023-04-01T16:05:30.903Z,80.48
2023-04-01T16:08:17.901Z,79.89
2023-04-01T16:10:59.392Z,78.62
2023-04-01T16:13:59.468Z,78.41
2023-04-01T16:16:59.873Z,78.80
2023-04-01T16:19:50.371Z,79.64
2023-04-01T16:23:00.121Z,80.62
2023-04-01T16:25:40.573Z,80.13
2023-04-01T16:28:38.324Z,78.65
2023-04-01T16:31:31.943Z,78.62
2023-04-01T16:34:32.173Z,79.33
2023-04-01T16:37:16.889Z,80.16
2023-04-01T16:39:54.900Z,80.82
2023-04-01T16:42:36.542Z,80.80
2023-04-01T16:45:08.153Z,79.70
2023-04-01T16:47:58.978Z,79.70
2023-04-01T16:51:05.547Z,80.06
2023-04-01T16:53:47.236Z,81.19
2023-04-01T16:56:22.214Z,82.11
2023-04-01T16:59:18.885Z,81.01
2023-04-01T17:02:10.508Z,80.60
2023-04-01T17:04:46.368Z,81.03
2023-04-01T17:07:23.354Z,81.37
2023-04-01T17:09:57.391Z,81.93
2023-04-01T17:12:34.764Z,81.89
2023-04-01T17:15:23.429Z,80.83
2023-04-01T17:18:13.081Z,80.21
2023-04-01T17:20:54.159Z,80.52
2023-04-01T17:23:27.452Z,81.39
2023-04-01T17:26:26.200Z,82.15
2023-04-01T17:29:18.175Z,82.73
2023-04-01T17:31:55.363Z,81.70
2023-04-01T17:34:39.201Z,82.70
2023-04-01T17:37:17.307Z,83.31
2023-04-01T17:39:52.045Z,84.06
2023-04-01T17:42:34.282Z,84.66
2023-04-01T17:45:02.924Z,84.16
2023-04-01T17:48:08.589Z,82.93
2023-04-01T17:50:53.181Z,82.61
2023-04-01T17:53:25.204Z,83.11
2023-04-01T17:56:00.139Z,84.04
2023-04-01T17:59:08.603Z,83.99
2023-04-01T18:02:08.981Z,83.19
2023-04-01T18:04:43.291Z,83.12
2023-04-01T18:07:25.491Z,83.43
2023-04-01T18:10:22.586Z,84.03
2023-04-01T18:12:59.766Z,84.67
2023-04-01T18:15:59.872Z,84.47
2023-04-01T18:18:38.264Z,82.79
2023-04-01T18:21:45.251Z,82.77
2023-04-01T18:24:28.999Z,83.28
2023-04-01T18:27:05.944Z,83.90
2023-04-01T18:29:56.059Z,84.95
2023-04-01T18:32:30.052Z,85.31
2023-04-01T18:35:36.379Z,84.42
2023-04-01T18:38:14.013Z,83.76
2023-04-01T18:40:52.957Z,83.91
2023-04-01T18:43:43.360Z,84.11
2023-04-01T18:46:19.423Z,84.81
2023-04-01T18:49:06.840Z,84.72
2023-04-01T18:51:58.478Z,82.82
2023-04-01T18:54:35.953Z,82.59
2023-04-01T18:57:24.709Z,83.15
2023-04-01T18:59:58.230Z,83.82
2023-04-01T19:02:29.013Z,84.63
2023-04-01T19:05:34.078Z,84.72
2023-04-01T19:08:32.279Z,83.82
2023-04-01T19:11:03.309Z,83.34
2023-04-01T19:13:41.311Z,84.28
2023-04-01T19:16:45.220Z,85.72
2023-04-01T19:19:19.892Z,87.13
2023-04-01T19:22:14.329Z,85.61
2023-04-01T19:24:58.162Z,83.93
2023-04-01T19:27:32.995Z,83.05
2023-04-01T19:30:10.796Z,83.53
2023-04-01T19:32:58.222Z,84.59
2023-04-01T19:36:04.460Z,84.96
2023-04-01T19:38:40.917Z,84.36
2023-04-01T19:41:41.924Z,82.58
2023-04-01T19:44:24.648Z,82.26
2023-04-01T19:46:55.666Z,83.75
2023-04-01T19:49:37.764Z,84.70
2023-04-01T19:52:16.374Z,85.82
2023-04-01T19:55:06.083Z,85.96
2023-04-01T19:57:48.109Z,84.43
2023-04-01T20:00:27.526Z,84.46
2023-04-01T20:03:05.179Z,84.90
2023-04-01T20:06:00.284Z,85.30
2023-04-01T20:08:46.282Z,86.20
2023-04-01T20:11:37.416Z,85.86
2023-04-01T20:14:21.370Z,85.08
2023-04-01T20:17:21.966Z,85.56
2023-04-01T20:19:56.892Z,86.05
2023-04-01T20:22:44.435Z,85.93
2023-04-01T20:25:22.632Z,87.23
2023-04-01T20:28:13.057Z,86.29
2023-04-01T20:31:06.805Z,85.02
2023-04-01T20:34:27.616Z,84.19
2023-04-01T20:37:12.954Z,84.49
2023-04-01T20:40:04.149Z,85.21
2023-04-01T20:42:51.010Z,85.41
2023-04-01T20:45:34.473Z,85.16
2023-04-01T20:48:28.011Z,84.76
2023-04-01T20:51:05.131Z,86.62
2023-04-01T20:54:01.939Z,87.98
2023-04-01T20:56:36.636Z,88.25
2023-04-01T20:59:30.960Z,86.30
2023-04-01T21:02:03.335Z,85.26
2023-04-01T21:04:32.548Z,85.50
2023-04-01T21:07:17.538Z,85.93
2023-04-01T21:10:24.785Z,86.82
2023-04-01T21:13:06.271Z,85.40
2023-04-01T21:16:02.844Z,83.86
2023-04-01T21:26:16.081Z,84.43
2023-04-01T21:29:19.277Z,85.91
2023-04-01T21:32:13.257Z,84.64
2023-04-01T21:34:56.596Z,81.87
2023-04-01T21:37:32.769Z,81.14
2023-04-01T21:40:11.056Z,82.79
2023-04-01T21:43:01.967Z,84.45
2023-04-01T21:46:06.134Z,86.88
2023-04-01T21:48:41.934Z,88.15
2023-04-01T21:51:48.609Z,87.59
2023-04-01T21:54:20.330Z,82.99
2023-04-01T21:57:21.772Z,82.79
2023-04-01T22:00:18.901Z,83.75
2023-04-01T22:03:26.738Z,84.62
2023-04-01T22:06:11.770Z,85.77
2023-04-01T22:08:54.557Z,85.23
2023-04-01T22:11:35.737Z,82.96
2023-04-01T22:14:21.438Z,83.06
2023-04-01T22:17:18.309Z,84.00
2023-04-01T22:19:51.991Z,84.84
2023-04-01T22:22:52.397Z,84.65
2023-04-01T22:25:34.674Z,84.56
2023-04-01T22:28:09.230Z,84.36
2023-04-01T22:30:50.709Z,83.45
2023-04-01T22:33:55.544Z,83.17
2023-04-01T22:36:46.449Z,81.62
2023-04-01T22:39:19.208Z,82.89
2023-04-01T22:41:52.559Z,83.80
2023-04-01T22:44:43.532Z,83.95
2023-04-01T22:47:18.415Z,84.11
2023-04-01T22:50:00.662Z,82.57
2023-04-01T22:52:34.921Z,82.64
2023-04-01T22:55:13.735Z,83.02
2023-04-01T22:57:51.022Z,83.49
2023-04-01T23:00:21.843Z,83.84
2023-04-01T23:03:08.038Z,84.63
2023-04-01T23:05:43.970Z,84.77
2023-04-01T23:08:33.997Z,83.85
2023-04-01T23:11:07.685Z,83.21
2023-04-01T23:13:41.213Z,83.51
2023-04-01T23:16:09.703Z,84.39
2023-04-01T23:19:09.071Z,85.15
2023-04-01T23:22:01.375Z,84.74
2023-04-01T23:24:35.310Z,82.82
2023-04-01T23:27:24.900Z,82.48
2023-04-01T23:29:53.799Z,83.31
2023-04-01T23:32:28.349Z,85.47
2023-04-01T23:34:58.624Z,86.89
2023-04-01T23:37:27.852Z,86.84
2023-04-01T23:39:57.946Z,84.71
2023-04-01T23:42:33.942Z,83.74
2023-04-01T23:45:07.199Z,83.89
2023-04-01T23:47:38.819Z,84.12
2023-04-01T23:50:24.835Z,84.58
2023-04-01T23:52:58.334Z,85.19
2023-04-01T23:55:28.706Z,85.32
2023-04-01T23:58:07.898Z,83.96
